createdAt,value
2023-01-11T00:00:48.291Z,1.77
2023-01-11T00:03:15.786Z,2.00
2023-01-11T00:05:44.054Z,2.08
2023-01-11T00:08:11.687Z,1.80
2023-01-11T00:10:39.488Z,1.70
2023-01-11T00:13:07.036Z,1.88
2023-01-11T00:15:36.434Z,1.70
2023-01-11T00:18:03.461Z,1.88
2023-01-11T00:20:30.470Z,1.95
2023-01-11T00:22:57.599Z,2.05
2023-01-11T00:25:24.888Z,1.67
2023-01-11T00:27:51.768Z,1.52
2023-01-11T00:30:19.054Z,1.70
2023-01-11T00:32:45.927Z,1.60
2023-01-11T00:35:13.509Z,2.03
2023-01-11T00:37:41.115Z,2.15
2023-01-11T00:40:08.722Z,2.00
2023-01-11T00:42:54.377Z,1.80
2023-01-11T00:45:40.048Z,1.83
2023-01-11T00:48:07.628Z,2.13
2023-01-11T00:50:36.577Z,2.30
2023-01-11T00:53:05.278Z,1.67
2023-01-11T00:55:32.238Z,1.70
2023-01-11T00:58:00.205Z,1.63
2023-01-11T01:00:28.435Z,2.00
2023-01-11T01:02:55.693Z,2.55
2023-01-11T01:05:22.785Z,2.22
2023-01-11T01:07:50.027Z,2.17
2023-01-11T01:10:18.627Z,2.40
2023-01-11T01:13:04.645Z,2.05
2023-01-11T01:15:32.229Z,1.95
2023-01-11T01:17:59.316Z,2.13
2023-01-11T01:20:26.768Z,1.88
2023-01-11T01:22:53.832Z,1.80
2023-01-11T01:25:21.069Z,2.17
2023-01-11T01:27:48.030Z,2.10
2023-01-11T01:30:15.042Z,1.60
2023-01-11T01:32:42.119Z,1.90
2023-01-11T01:35:09.471Z,2.15
2023-01-11T01:37:36.535Z,2.50
2023-01-11T01:40:04.146Z,2.35
2023-01-11T01:42:31.163Z,3.05
2023-01-11T01:45:07.071Z,2.75
2023-01-11T01:47:42.700Z,2.40
2023-01-11T01:50:20.941Z,2.63
2023-01-11T01:52:53.134Z,2.17
2023-01-11T01:55:29.103Z,2.10
2023-01-11T01:57:58.859Z,2.10
2023-01-11T02:00:25.898Z,2.20
2023-01-11T02:02:53.340Z,2.35
2023-01-11T02:05:20.421Z,3.00
2023-01-11T02:07:47.789Z,2.30
2023-01-11T02:10:20.200Z,1.98
2023-01-11T02:12:51.971Z,2.20
2023-01-11T02:15:21.067Z,2.42
2023-01-11T02:17:48.184Z,2.15
2023-01-11T02:20:52.554Z,3.90
2023-01-11T02:23:43.818Z,2.33
2023-01-11T02:26:51.562Z,2.55
2023-01-11T02:30:13.544Z,2.72
2023-01-11T02:32:54.210Z,2.88
2023-01-11T02:35:36.733Z,2.70
2023-01-11T02:38:30.029Z,2.20
2023-01-11T02:41:12.633Z,3.05
2023-01-11T02:44:11.901Z,2.88
2023-01-11T02:46:47.810Z,2.72
2023-01-11T02:49:33.302Z,2.83
2023-01-11T02:52:13.132Z,2.78
2023-01-11T02:54:44.828Z,3.15
2023-01-11T02:57:12.652Z,3.13
2023-01-11T02:59:40.821Z,2.53
2023-01-11T03:02:07.698Z,3.08
2023-01-11T03:04:37.281Z,2.72
2023-01-11T03:07:25.507Z,2.45
2023-01-11T03:10:11.056Z,3.58
2023-01-11T03:13:03.319Z,2.83
2023-01-11T03:16:05.090Z,3.60
2023-01-11T03:18:40.544Z,3.75
2023-01-11T03:21:17.156Z,3.10
2023-01-11T03:23:46.821Z,3.95
2023-01-11T03:26:39.171Z,3.13
2023-01-11T03:29:18.342Z,3.20
2023-01-11T03:31:57.164Z,3.40
2023-01-11T03:34:33.544Z,3.75
2023-01-11T03:37:12.863Z,2.90
2023-01-11T03:39:42.678Z,3.90
2023-01-11T03:42:12.302Z,3.35
2023-01-11T03:44:48.992Z,3.28
2023-01-11T03:47:18.896Z,3.50
2023-01-11T03:49:59.317Z,3.05
2023-01-11T03:52:31.914Z,3.58
2023-01-11T03:55:00.503Z,3.15
2023-01-11T03:57:35.646Z,2.65
2023-01-11T04:00:05.363Z,2.95
2023-01-11T04:02:40.965Z,2.95
2023-01-11T04:05:10.759Z,2.85
2023-01-11T04:07:37.741Z,2.88
2023-01-11T04:10:05.789Z,2.72
2023-01-11T04:12:32.748Z,2.60
2023-01-11T04:14:59.681Z,3.65
2023-01-11T04:17:26.542Z,2.92
2023-01-11T04:19:53.500Z,2.80
2023-01-11T04:22:20.440Z,3.15
2023-01-11T04:24:47.388Z,3.22
2023-01-11T04:27:14.251Z,3.00
2023-01-11T04:29:41.139Z,3.25
2023-01-11T04:32:07.866Z,3.20
2023-01-11T04:34:34.748Z,3.35
2023-01-11T04:37:01.610Z,3.55
2023-01-11T04:39:28.507Z,2.88
2023-01-11T04:42:13.843Z,3.97
2023-01-11T04:47:07.458Z,3.50
2023-01-11T04:49:34.281Z,2.97
2023-01-11T04:52:01.184Z,2.72
2023-01-11T04:54:27.976Z,3.05
2023-01-11T04:56:54.816Z,3.47
2023-01-11T04:59:21.817Z,3.42
2023-01-11T05:01:48.891Z,2.90
2023-01-11T05:04:15.986Z,3.55
2023-01-11T05:06:42.764Z,3.53
2023-01-11T05:09:17.023Z,3.47
2023-01-11T05:11:44.154Z,3.40
2023-01-11T05:14:11.307Z,3.92
2023-01-11T05:16:38.297Z,3.63
2023-01-11T05:19:06.620Z,3.80
2023-01-11T05:21:36.581Z,4.35
2023-01-11T05:24:05.204Z,3.70
2023-01-11T05:26:37.117Z,3.90
2023-01-11T05:29:07.292Z,4.25
2023-01-11T05:31:35.638Z,4.15
2023-01-11T05:34:02.767Z,3.95
2023-01-11T05:36:29.886Z,3.72
2023-01-11T05:38:57.206Z,4.22
2023-01-11T05:41:26.748Z,4.32
2023-01-11T05:44:13.688Z,4.85
2023-01-11T05:46:43.030Z,3.95
2023-01-11T05:49:11.581Z,3.58
2023-01-11T05:51:38.823Z,4.28
2023-01-11T05:54:07.618Z,4.22
2023-01-11T05:56:34.662Z,4.50
2023-01-11T05:59:02.308Z,3.97
2023-01-11T06:01:29.337Z,4.18
2023-01-11T06:03:56.195Z,3.88
2023-01-11T06:06:23.555Z,4.10
2023-01-11T06:08:50.534Z,4.20
2023-01-11T06:11:18.650Z,4.80
2023-01-11T06:13:45.692Z,4.05
2023-01-11T06:16:15.809Z,4.15
2023-01-11T06:18:48.299Z,5.00
2023-01-11T06:21:16.565Z,4.18
2023-01-11T06:23:46.495Z,3.75
2023-01-11T06:26:15.659Z,5.00
2023-01-11T06:28:43.209Z,4.45
2023-01-11T06:31:10.539Z,4.40
2023-01-11T06:33:37.521Z,4.90
2023-01-11T06:36:07.143Z,4.85
2023-01-11T06:38:35.314Z,3.78
2023-01-11T06:41:04.856Z,4.60
2023-01-11T06:43:32.396Z,4.60
2023-01-11T06:46:00.262Z,4.32
2023-01-11T06:48:28.191Z,4.13
2023-01-11T06:50:57.330Z,3.42
2023-01-11T06:53:28.282Z,3.85
2023-01-11T06:55:57.276Z,3.72
2023-01-11T06:58:26.048Z,4.80
2023-01-11T07:00:54.939Z,3.72
2023-01-11T07:03:24.364Z,3.60
2023-01-11T07:05:57.169Z,4.00
2023-01-11T07:08:27.888Z,3.75
2023-01-11T07:10:55.051Z,4.53
2023-01-11T07:13:21.884Z,4.43
2023-01-11T07:15:50.958Z,4.30
2023-01-11T07:18:19.672Z,3.65
2023-01-11T07:20:46.884Z,4.72
2023-01-11T07:23:14.125Z,4.88
2023-01-11T07:25:41.424Z,4.00
2023-01-11T07:28:09.632Z,3.80
2023-01-11T07:30:56.559Z,3.65
2023-01-11T07:33:24.695Z,2.92
2023-01-11T07:35:51.793Z,3.65
2023-01-11T07:38:18.806Z,4.78
2023-01-11T07:40:45.783Z,3.25
2023-01-11T07:43:18.470Z,3.63
2023-01-11T07:45:50.758Z,3.17
2023-01-11T07:48:21.604Z,3.00
2023-01-11T07:50:49.182Z,3.40
2023-01-11T07:53:16.928Z,2.88
2023-01-11T07:55:44.059Z,2.90
2023-01-11T07:58:15.350Z,3.13
2023-01-11T08:00:42.359Z,2.70
2023-01-11T08:03:09.941Z,2.45
2023-01-11T08:05:37.339Z,2.53
2023-01-11T08:08:04.788Z,2.95
2023-01-11T08:10:31.975Z,2.97
2023-01-11T08:13:18.024Z,2.70
2023-01-11T08:15:45.234Z,3.30
2023-01-11T08:18:13.215Z,2.50
2023-01-11T08:20:40.705Z,2.92
2023-01-11T08:23:09.742Z,2.67
2023-01-11T08:25:37.406Z,3.05
2023-01-11T08:28:06.124Z,3.05
2023-01-11T08:30:33.711Z,3.22
2023-01-11T08:33:01.975Z,2.90
2023-01-11T08:35:29.387Z,3.00
2023-01-11T08:37:56.221Z,2.70
2023-01-11T08:40:24.389Z,3.45
2023-01-11T08:42:57.764Z,3.65
2023-01-11T08:45:25.807Z,3.50
2023-01-11T08:47:53.499Z,3.13
2023-01-11T08:50:22.306Z,3.10
2023-01-11T08:52:51.349Z,3.97
2023-01-11T08:55:20.724Z,3.33
2023-01-11T08:57:48.180Z,3.28
2023-01-11T09:00:15.951Z,3.38
2023-01-11T09:02:45.570Z,3.13
2023-01-11T09:05:12.672Z,5.10
2023-01-11T09:07:39.963Z,4.03
2023-01-11T09:10:07.295Z,3.35
2023-01-11T09:12:34.215Z,3.88
2023-01-11T09:15:01.214Z,3.78
2023-01-11T09:17:28.003Z,3.67
2023-01-11T09:19:55.023Z,2.97
2023-01-11T09:22:21.927Z,2.75
2023-01-11T09:24:49.116Z,3.40
2023-01-11T09:27:16.800Z,3.30
2023-01-11T09:29:43.975Z,3.67
2023-01-11T09:32:11.031Z,3.58
2023-01-11T09:34:38.115Z,3.67
2023-01-11T09:37:06.849Z,3.20
2023-01-11T09:39:35.278Z,3.55
2023-01-11T09:42:19.994Z,3.28
2023-01-11T09:44:54.719Z,3.00
2023-01-11T09:47:37.042Z,3.70
2023-01-11T09:50:10.747Z,3.30
2023-01-11T09:52:42.392Z,2.95
2023-01-11T09:55:20.075Z,3.78
2023-01-11T09:57:59.520Z,3.13
2023-01-11T10:00:44.463Z,3.60
2023-01-11T10:03:29.327Z,3.10
2023-01-11T10:06:17.779Z,4.25
2023-01-11T10:18:28.494Z,3.85
2023-01-11T10:24:35.392Z,3.13
2023-01-11T10:27:04.164Z,3.33
2023-01-11T10:29:53.727Z,3.38
2023-01-11T10:32:46.077Z,3.25
2023-01-11T10:35:59.009Z,3.97
2023-01-11T10:38:55.224Z,3.78
2023-01-11T10:41:46.800Z,3.50
2023-01-11T10:44:32.869Z,3.40
2023-01-11T10:47:02.351Z,3.65
2023-01-11T10:49:38.480Z,3.25
2023-01-11T10:52:30.995Z,3.13
2023-01-11T10:55:00.741Z,3.92
2023-01-11T10:58:01.407Z,3.83
2023-01-11T11:00:32.852Z,3.35
2023-01-11T11:03:11.949Z,3.30
2023-01-11T11:05:53.197Z,3.28
2023-01-11T11:08:28.353Z,3.50
2023-01-11T11:13:51.977Z,3.20
2023-01-11T11:16:25.011Z,3.47
2023-01-11T11:18:58.953Z,2.95
2023-01-11T11:21:28.788Z,2.95
2023-01-11T11:24:02.342Z,2.47
2023-01-11T11:26:38.565Z,3.20
2023-01-11T11:29:07.935Z,2.92
2023-01-11T11:31:37.849Z,2.90
2023-01-11T11:34:07.535Z,2.13
2023-01-11T11:36:43.485Z,2.15
2023-01-11T11:39:20.922Z,2.33
2023-01-11T11:41:51.462Z,2.30
2023-01-11T11:44:22.718Z,2.50
2023-01-11T11:47:01.680Z,2.50
2023-01-11T11:49:34.290Z,2.42
2023-01-11T11:52:03.432Z,2.83
2023-01-11T11:54:34.534Z,2.47
2023-01-11T11:57:23.852Z,2.50
2023-01-11T12:00:01.492Z,2.20
2023-01-11T12:02:32.979Z,2.20
2023-01-11T12:05:05.242Z,2.20
2023-01-11T12:07:53.547Z,2.10
2023-01-11T12:10:27.358Z,2.20
2023-01-11T12:13:00.037Z,1.85
2023-01-11T12:15:35.174Z,2.15
2023-01-11T12:18:25.251Z,2.10
2023-01-11T12:20:52.846Z,1.90
2023-01-11T12:23:26.087Z,1.65
2023-01-11T12:26:22.048Z,1.60
2023-01-11T12:29:30.637Z,1.70
2023-01-11T12:32:14.077Z,1.73
2023-01-11T12:35:04.295Z,1.83
2023-01-11T12:37:54.312Z,1.58
2023-01-11T12:40:40.850Z,1.75
2023-01-11T12:43:13.843Z,1.42
2023-01-11T12:45:47.728Z,1.95
2023-01-11T12:48:53.849Z,1.50
2023-01-11T12:51:57.824Z,1.77
2023-01-11T12:54:33.625Z,1.50
2023-01-11T12:57:18.590Z,1.50
2023-01-11T13:00:24.085Z,1.25
2023-01-11T13:02:59.984Z,1.35
2023-01-11T13:05:51.336Z,1.50
2023-01-11T13:08:46.887Z,1.30
2023-01-11T13:11:38.430Z,1.35
2023-01-11T13:14:34.005Z,1.30
2023-01-11T13:17:24.467Z,1.20
2023-01-11T13:19:51.265Z,1.30
2023-01-11T13:22:23.463Z,1.40
2023-01-11T13:24:51.644Z,1.02
2023-01-11T13:27:23.126Z,1.17
2023-01-11T13:29:59.713Z,1.17
2023-01-11T13:32:32.967Z,1.20
2023-01-11T13:35:13.860Z,1.65
2023-01-11T13:37:47.936Z,0.90
2023-01-11T13:40:26.504Z,0.93
2023-01-11T13:43:27.519Z,1.20
2023-01-11T13:46:12.384Z,1.10
2023-01-11T13:48:52.633Z,0.85
2023-01-11T13:51:31.635Z,1.33
2023-01-11T13:54:12.080Z,1.27
2023-01-11T13:56:43.941Z,1.20
2023-01-11T13:59:34.735Z,1.65
2023-01-11T14:02:11.448Z,1.00
2023-01-11T14:04:45.671Z,1.15
2023-01-11T14:07:46.444Z,1.27
2023-01-11T14:10:47.889Z,1.38
2023-01-11T14:13:57.934Z,1.05
2023-01-11T14:16:52.282Z,0.90
2023-01-11T14:19:38.424Z,1.08
2023-01-11T14:22:13.110Z,0.85
2023-01-11T14:24:48.177Z,0.90
2023-01-11T14:30:05.769Z,1.00
2023-01-11T14:32:38.437Z,1.13
2023-01-11T14:35:17.408Z,1.08
2023-01-11T14:38:14.888Z,1.05
2023-01-11T14:41:03.942Z,0.70
2023-01-11T14:43:40.061Z,1.25
2023-01-11T14:46:28.415Z,1.00
2023-01-11T14:49:24.694Z,0.82
2023-01-11T14:52:14.894Z,0.80
2023-01-11T14:54:45.850Z,0.98
2023-01-11T14:57:40.987Z,0.90
2023-01-11T15:00:20.150Z,1.10
2023-01-11T15:02:50.942Z,1.20
2023-01-11T15:05:31.156Z,1.30
2023-01-11T15:08:13.323Z,1.15
2023-01-11T15:10:45.945Z,1.33
2023-01-11T15:13:23.803Z,1.38
2023-01-11T15:16:10.278Z,1.10
2023-01-11T15:18:44.899Z,1.00
2023-01-11T15:21:23.269Z,0.93
2023-01-11T15:23:57.018Z,1.48
2023-01-11T15:26:26.733Z,1.30
2023-01-11T15:28:55.690Z,1.35
2023-01-11T15:31:49.062Z,1.20
2023-01-11T15:34:26.523Z,1.05
2023-01-11T15:36:56.187Z,1.02
2023-01-11T15:39:29.265Z,1.35
2023-01-11T15:42:27.042Z,1.30
2023-01-11T15:45:03.103Z,1.30
2023-01-11T15:48:08.603Z,1.30
2023-01-11T15:50:51.300Z,0.95
2023-01-11T15:53:31.869Z,1.42
2023-01-11T15:56:10.673Z,1.33
2023-01-11T15:58:59.236Z,1.42
2023-01-11T16:01:30.208Z,1.70
2023-01-11T16:04:02.687Z,1.30
2023-01-11T16:06:51.752Z,1.50
2023-01-11T16:09:42.687Z,1.20
2023-01-11T16:12:30.725Z,1.13
2023-01-11T16:15:16.342Z,1.52
2023-01-11T16:17:46.354Z,1.48
2023-01-11T16:20:19.361Z,1.40
2023-01-11T16:22:54.999Z,1.42
2023-01-11T16:25:25.548Z,1.08
2023-01-11T16:27:54.454Z,1.13
2023-01-11T16:30:21.949Z,1.65
2023-01-11T16:32:48.985Z,3.47
2023-01-11T16:35:26.265Z,1.52
2023-01-11T16:38:01.570Z,1.33
2023-01-11T16:40:40.484Z,1.58
2023-01-11T16:43:29.269Z,1.52
2023-01-11T16:45:56.518Z,1.40
2023-01-11T16:48:29.740Z,1.30
2023-01-11T16:50:59.516Z,1.48
2023-01-11T16:53:28.335Z,1.67
2023-01-11T16:56:07.622Z,1.48
2023-01-11T16:58:40.542Z,1.75
2023-01-11T17:01:15.504Z,1.70
2023-01-11T17:06:25.186Z,1.58
2023-01-11T17:08:56.859Z,1.50
2023-01-11T17:11:32.862Z,1.65
2023-01-11T17:14:18.340Z,1.88
2023-01-11T17:19:16.830Z,1.70
2023-01-11T17:21:51.972Z,2.00
2023-01-11T17:24:25.018Z,1.83
2023-01-11T17:26:56.749Z,3.70
2023-01-11T17:29:32.775Z,2.00
2023-01-11T17:32:03.040Z,1.63
2023-01-11T17:34:34.303Z,1.70
2023-01-11T17:37:04.676Z,1.90
2023-01-11T17:39:34.683Z,2.33
2023-01-11T17:42:23.132Z,1.92
2023-01-11T17:45:10.702Z,2.38
2023-01-11T17:47:43.129Z,4.20
2023-01-11T17:50:22.329Z,2.63
2023-01-11T17:52:57.386Z,1.70
2023-01-11T17:55:27.422Z,2.20
2023-01-11T17:58:18.232Z,2.50
2023-01-11T18:01:07.734Z,2.25
2023-01-11T18:03:46.808Z,2.22
2023-01-11T18:06:41.095Z,2.53
2023-01-11T18:09:23.312Z,3.00
2023-01-11T18:11:52.515Z,2.75
2023-01-11T18:14:22.657Z,2.80
2023-01-11T18:17:07.370Z,2.50
2023-01-11T18:19:45.318Z,2.88
2023-01-11T18:22:35.345Z,2.30
2023-01-11T18:25:15.121Z,2.60
2023-01-11T18:27:46.530Z,2.20
2023-01-11T18:30:47.290Z,2.63
2023-01-11T18:33:22.994Z,2.60
2023-01-11T18:35:52.758Z,2.58
2023-01-11T18:38:39.309Z,2.40
2023-01-11T18:41:27.796Z,2.70
2023-01-11T18:43:56.072Z,2.63
2023-01-11T18:46:24.570Z,2.60
2023-01-11T18:48:51.365Z,2.33
2023-01-11T18:51:23.233Z,2.35
2023-01-11T18:53:50.121Z,3.15
2023-01-11T18:56:18.183Z,3.45
2023-01-11T18:58:45.091Z,2.33
2023-01-11T19:01:12.380Z,3.17
2023-01-11T19:03:39.656Z,2.60
2023-01-11T19:06:07.499Z,2.60
2023-01-11T19:08:34.504Z,2.88
2023-01-11T19:11:03.275Z,2.92
2023-01-11T19:13:30.548Z,3.15
2023-01-11T19:15:57.884Z,4.55
2023-01-11T19:18:25.432Z,3.72
2023-01-11T19:20:52.387Z,3.30
2023-01-11T19:23:19.317Z,2.92
2023-01-11T19:25:46.098Z,2.88
2023-01-11T19:28:13.095Z,2.88
2023-01-11T19:30:40.445Z,2.88
2023-01-11T19:33:07.383Z,2.72
2023-01-11T19:35:34.316Z,2.97
2023-01-11T19:38:01.173Z,3.15
2023-01-11T19:40:27.923Z,3.05
2023-01-11T19:42:54.883Z,2.85
2023-01-11T19:45:21.946Z,2.67
2023-01-11T19:47:48.913Z,3.90
2023-01-11T19:50:17.521Z,3.88
2023-01-11T19:52:46.458Z,3.03
2023-01-11T19:55:13.292Z,3.38
2023-01-11T19:57:41.539Z,3.15
2023-01-11T20:00:09.230Z,3.47
2023-01-11T20:02:36.231Z,3.45
2023-01-11T20:05:03.658Z,3.25
2023-01-11T20:07:30.609Z,3.72
2023-01-11T20:09:57.645Z,3.20
2023-01-11T20:12:24.512Z,3.30
2023-01-11T20:14:54.543Z,2.85
2023-01-11T20:17:22.683Z,3.72
2023-01-11T20:19:54.688Z,3.20
2023-01-11T20:22:23.878Z,4.43
2023-01-11T20:24:51.472Z,3.60
2023-01-11T20:27:20.060Z,3.30
2023-01-11T20:29:48.113Z,3.47
2023-01-11T20:32:39.092Z,4.43
2023-01-11T20:35:03.690Z,3.67
2023-01-11T20:37:30.600Z,3.47
2023-01-11T20:39:57.458Z,3.20
2023-01-11T20:42:24.465Z,3.30
2023-01-11T20:44:51.856Z,3.78
2023-01-11T20:47:18.876Z,3.78
2023-01-11T20:49:45.768Z,3.42
2023-01-11T20:52:12.778Z,3.08
2023-01-11T20:54:39.626Z,3.47
2023-01-11T20:57:12.459Z,3.40
2023-01-11T20:59:39.360Z,3.42
2023-01-11T21:02:07.832Z,4.05
2023-01-11T21:04:35.965Z,3.47
2023-01-11T21:07:03.050Z,3.45
2023-01-11T21:09:30.044Z,3.70
2023-01-11T21:11:56.769Z,3.40
2023-01-11T21:14:23.905Z,3.35
2023-01-11T21:16:50.958Z,3.47
2023-01-11T21:19:17.992Z,3.28
2023-01-11T21:21:44.826Z,3.65
2023-01-11T21:24:14.323Z,3.45
2023-01-11T21:26:42.547Z,3.92
2023-01-11T21:29:10.703Z,3.70
2023-01-11T21:31:38.811Z,3.67
2023-01-11T21:34:06.160Z,3.78
2023-01-11T21:36:34.532Z,4.45
2023-01-11T21:39:02.846Z,3.22
2023-01-11T21:41:52.476Z,4.20
2023-01-11T21:44:21.138Z,4.13
2023-01-11T21:46:48.781Z,3.92
2023-01-11T21:49:16.771Z,3.92
2023-01-11T21:51:44.193Z,3.63
2023-01-11T21:54:13.444Z,3.92
2023-01-11T21:56:42.162Z,4.40
2023-01-11T21:59:09.969Z,3.90
2023-01-11T22:01:38.710Z,3.95
2023-01-11T22:04:11.110Z,3.80
2023-01-11T22:06:40.249Z,4.22
2023-01-11T22:09:09.313Z,4.43
2023-01-11T22:11:36.171Z,3.95
2023-01-11T22:14:05.056Z,3.60
2023-01-11T22:16:33.407Z,4.00
2023-01-11T22:19:00.939Z,4.00
2023-01-11T22:21:28.295Z,4.25
2023-01-11T22:23:59.389Z,4.60
2023-01-11T22:26:27.788Z,4.32
2023-01-11T22:29:14.417Z,4.43
2023-01-11T22:31:45.828Z,4.47
2023-01-11T22:34:14.107Z,5.05
2023-01-11T22:36:42.161Z,3.83
2023-01-11T22:39:09.187Z,4.28
2023-01-11T22:41:36.145Z,4.13
2023-01-11T22:44:03.717Z,5.30
2023-01-11T22:46:30.615Z,4.35
2023-01-11T22:48:58.935Z,4.47
2023-01-11T22:51:26.524Z,4.45
2023-01-11T22:53:55.150Z,5.60
2023-01-11T22:56:25.931Z,4.60
2023-01-11T22:58:53.792Z,4.80
2023-01-11T23:01:48.131Z,4.28
2023-01-11T23:04:15.096Z,4.45
2023-01-11T23:06:45.006Z,5.43
2023-01-11T23:09:16.214Z,5.25
2023-01-11T23:12:05.369Z,4.72
2023-01-11T23:14:33.492Z,4.45
2023-01-11T23:17:05.770Z,5.25
2023-01-11T23:19:34.132Z,4.63
2023-01-11T23:22:01.077Z,4.78
2023-01-11T23:24:27.907Z,4.95
2023-01-11T23:26:54.932Z,4.20
2023-01-11T23:29:21.824Z,4.68
2023-01-11T23:31:48.859Z,4.70
2023-01-11T23:34:16.019Z,3.97
2023-01-11T23:36:43.597Z,4.43
2023-01-11T23:39:15.343Z,4.35
2023-01-11T23:42:01.687Z,4.38
2023-01-11T23:44:29.047Z,5.80
2023-01-11T23:47:14.931Z,4.95
2023-01-11T23:49:43.734Z,4.63
2023-01-11T23:52:11.292Z,4.07
2023-01-11T23:54:38.355Z,4.70
2023-01-11T23:57:05.390Z,4.95
2023-01-11T23:59:32.419Z,4.45
